createdAt,value
2019-02-26T00:01:55.052Z,99.90
2019-02-26T00:04:25.485Z,99.90
2019-02-26T00:06:55.859Z,99.90
2019-02-26T00:09:27.655Z,99.90
2019-02-26T00:11:57.463Z,99.90
2019-02-26T00:14:27.583Z,99.90
2019-02-26T00:16:57.982Z,99.90
2019-02-26T00:19:27.457Z,99.90
2019-02-26T00:21:57.247Z,99.90
2019-02-26T00:24:30.445Z,99.90
2019-02-26T00:26:58.494Z,99.90
2019-02-26T00:29:29.861Z,99.90
2019-02-26T00:32:00.129Z,99.90
2019-02-26T00:34:30.461Z,99.90
2019-02-26T00:37:01.798Z,99.90
2019-02-26T00:39:31.716Z,99.90
2019-02-26T00:42:02.727Z,99.90
2019-02-26T00:44:34.566Z,99.90
2019-02-26T00:47:04.812Z,99.90
2019-02-26T00:49:34.609Z,99.90
2019-02-26T00:52:06.248Z,99.90
2019-02-26T00:54:36.581Z,99.90
2019-02-26T00:57:08.687Z,99.90
2019-02-26T00:59:38.919Z,99.90
2019-02-26T01:02:08.363Z,99.90
2019-02-26T01:04:39.100Z,99.90
2019-02-26T01:07:09.187Z,99.90
2019-02-26T01:09:38.751Z,99.90
2019-02-26T01:12:09.204Z,99.90
2019-02-26T01:14:41.200Z,99.90
2019-02-26T01:17:12.067Z,99.90
2019-02-26T01:19:43.075Z,99.90
2019-02-26T01:22:12.846Z,99.90
2019-02-26T01:24:42.335Z,99.90
2019-02-26T01:27:12.070Z,99.90
2019-02-26T01:29:41.494Z,99.90
2019-02-26T01:32:13.187Z,99.90
2019-02-26T01:34:42.678Z,99.90
2019-02-26T01:37:13.234Z,99.90
2019-02-26T01:39:44.673Z,99.90
2019-02-26T01:42:17.388Z,99.90
2019-02-26T01:44:45.517Z,99.90
2019-02-26T01:47:17.096Z,99.90
2019-02-26T01:49:47.225Z,99.90
2019-02-26T01:52:17.510Z,99.90
2019-02-26T01:54:47.178Z,99.90
2019-02-26T01:57:17.397Z,99.90
2019-02-26T01:59:50.237Z,99.90
2019-02-26T02:02:20.306Z,99.90
2019-02-26T02:04:49.942Z,99.90
2019-02-26T02:07:21.313Z,99.90
2019-02-26T02:09:51.286Z,99.90
2019-02-26T02:12:25.398Z,99.90
2019-02-26T02:14:52.841Z,99.90
2019-02-26T02:17:22.789Z,99.90
2019-02-26T02:19:52.302Z,99.90
2019-02-26T02:22:21.753Z,99.90
2019-02-26T02:24:53.390Z,99.90
2019-02-26T02:27:24.571Z,99.90
2019-02-26T02:29:55.446Z,99.90
2019-02-26T02:32:26.612Z,99.90
2019-02-26T02:35:00.540Z,99.90
2019-02-26T02:37:29.441Z,99.90
2019-02-26T02:39:58.671Z,99.90
2019-02-26T02:42:28.484Z,99.90
2019-02-26T02:44:57.920Z,99.90
2019-02-26T02:47:29.929Z,99.90
2019-02-26T02:49:58.420Z,99.90
2019-02-26T02:52:29.856Z,99.90
2019-02-26T02:54:58.993Z,99.90
2019-02-26T02:57:30.044Z,99.90
2019-02-26T03:00:00.525Z,99.90
2019-02-26T03:02:30.668Z,99.90
2019-02-26T03:05:00.406Z,99.90
2019-02-26T03:07:29.835Z,99.90
2019-02-26T03:10:03.914Z,99.90
2019-02-26T03:12:31.935Z,99.90
2019-02-26T03:15:02.395Z,99.90
2019-02-26T03:17:32.470Z,99.90
2019-02-26T03:20:04.924Z,99.90
2019-02-26T03:22:34.156Z,99.90
2019-02-26T03:25:04.124Z,99.90
2019-02-26T03:27:34.274Z,99.90
2019-02-26T03:30:05.457Z,99.90
2019-02-26T03:32:36.770Z,99.90
2019-02-26T03:35:07.398Z,99.90
2019-02-26T03:37:37.757Z,99.90
2019-02-26T03:40:08.621Z,99.90
2019-02-26T03:42:39.020Z,99.90
2019-02-26T03:45:11.128Z,99.90
2019-02-26T03:47:40.731Z,99.90
2019-02-26T03:50:12.296Z,99.90
2019-02-26T03:52:41.808Z,99.90
2019-02-26T03:55:12.097Z,99.90
2019-02-26T03:57:46.920Z,99.90
2019-02-26T04:00:16.757Z,99.90
2019-02-26T04:02:48.371Z,99.90
2019-02-26T04:05:17.170Z,99.90
2019-02-26T04:07:51.740Z,99.90
2019-02-26T04:10:17.553Z,99.90
2019-02-26T04:12:49.010Z,99.90
2019-02-26T04:15:18.248Z,99.90
2019-02-26T04:17:47.815Z,99.90
2019-02-26T04:20:18.330Z,99.90
2019-02-26T04:22:49.915Z,99.90
2019-02-26T04:26:03.731Z,99.90
2019-02-26T04:28:48.259Z,99.90
2019-02-26T04:31:50.250Z,99.90
2019-02-26T04:34:51.988Z,99.90
2019-02-26T04:38:12.306Z,99.90
2019-02-26T04:41:06.071Z,99.90
2019-02-26T04:44:15.986Z,99.90
2019-02-26T04:46:57.633Z,99.90
2019-02-26T04:49:30.153Z,99.90
2019-02-26T04:51:58.944Z,99.90
2019-02-26T04:54:31.160Z,99.90
2019-02-26T04:56:59.646Z,99.90
2019-02-26T04:59:29.925Z,99.90
2019-02-26T05:02:00.174Z,99.90
2019-02-26T05:04:30.749Z,99.90
2019-02-26T05:07:04.398Z,99.90
2019-02-26T05:09:33.334Z,99.90
2019-02-26T05:12:03.273Z,99.90
2019-02-26T05:14:32.829Z,99.90
2019-02-26T05:17:02.315Z,99.90
2019-02-26T05:19:32.014Z,99.90
2019-02-26T05:22:02.311Z,99.90
2019-02-26T05:24:32.555Z,99.90
2019-02-26T05:27:12.304Z,99.90
2019-02-26T05:29:43.464Z,99.90
2019-02-26T05:32:12.922Z,99.90
2019-02-26T05:34:44.804Z,99.90
2019-02-26T05:37:13.949Z,99.90
2019-02-26T05:39:45.882Z,99.90
2019-02-26T05:42:14.559Z,99.90
2019-02-26T05:44:44.076Z,99.90
2019-02-26T05:47:15.739Z,99.90
2019-02-26T05:49:45.838Z,99.90
2019-02-26T05:52:15.461Z,99.90
2019-02-26T05:54:44.875Z,99.90
2019-02-26T05:57:25.964Z,99.90
2019-02-26T05:59:45.425Z,99.90
2019-02-26T06:02:16.713Z,99.90
2019-02-26T06:04:46.743Z,99.90
2019-02-26T06:07:19.246Z,99.90
2019-02-26T06:09:48.349Z,99.90
2019-02-26T06:12:18.802Z,99.90
2019-02-26T06:14:48.336Z,99.90
2019-02-26T06:17:19.758Z,99.90
2019-02-26T06:19:50.259Z,99.90
2019-02-26T06:22:23.264Z,99.90
2019-02-26T06:24:54.983Z,99.90
2019-02-26T06:27:24.579Z,99.90
2019-02-26T06:29:55.444Z,99.90
2019-02-26T06:32:27.525Z,99.90
2019-02-26T06:34:55.494Z,99.90
2019-02-26T06:37:25.029Z,99.90
2019-02-26T06:39:55.663Z,99.90
2019-02-26T06:42:26.047Z,99.90
2019-02-26T06:44:55.576Z,99.90
2019-02-26T06:47:26.488Z,99.90
2019-02-26T06:49:56.554Z,99.90
2019-02-26T06:52:26.057Z,99.90
2019-02-26T06:54:58.075Z,99.90
2019-02-26T06:57:26.635Z,99.90
2019-02-26T06:59:58.512Z,99.90
2019-02-26T07:02:29.034Z,99.90
2019-02-26T07:04:58.360Z,99.90
2019-02-26T07:07:28.000Z,99.90
2019-02-26T07:09:58.167Z,99.90
2019-02-26T07:12:27.801Z,99.90
2019-02-26T07:14:58.195Z,99.90
2019-02-26T07:17:31.906Z,99.90
2019-02-26T07:20:00.366Z,99.90
2019-02-26T07:22:30.125Z,99.90
2019-02-26T07:24:59.609Z,99.90
2019-02-26T07:27:31.397Z,99.90
2019-02-26T07:30:00.292Z,99.90
2019-02-26T07:32:29.679Z,99.90
2019-02-26T07:34:59.150Z,99.90
2019-02-26T07:37:30.904Z,99.90
2019-02-26T07:39:59.850Z,99.90
2019-02-26T07:42:32.712Z,99.90
2019-02-26T07:45:00.555Z,99.90
2019-02-26T07:47:31.476Z,99.90
2019-02-26T07:50:01.949Z,99.90
2019-02-26T07:52:33.071Z,99.90
2019-02-26T07:55:03.761Z,99.90
2019-02-26T07:57:34.150Z,99.90
2019-02-26T08:00:03.746Z,99.90
2019-02-26T08:02:34.980Z,99.90
2019-02-26T08:05:04.889Z,99.90
2019-02-26T08:07:34.534Z,99.90
2019-02-26T08:10:07.486Z,99.90
2019-02-26T08:12:36.385Z,99.90
2019-02-26T08:15:08.747Z,99.90
2019-02-26T08:17:38.615Z,99.90
2019-02-26T08:20:10.544Z,99.90
2019-02-26T08:22:40.675Z,99.90
2019-02-26T08:25:10.741Z,99.90
2019-02-26T08:27:40.189Z,99.90
2019-02-26T08:30:18.674Z,99.90
2019-02-26T08:32:51.051Z,99.90
2019-02-26T08:35:19.619Z,99.90
2019-02-26T08:37:49.059Z,99.90
2019-02-26T08:40:18.583Z,99.90
2019-02-26T08:42:48.258Z,99.90
2019-02-26T08:45:22.477Z,99.90
2019-02-26T08:47:50.577Z,99.90
2019-02-26T08:50:20.129Z,99.90
2019-02-26T08:52:52.390Z,99.90
2019-02-26T08:55:22.250Z,99.90
2019-02-26T08:57:53.875Z,99.90
2019-02-26T09:00:23.442Z,99.90
2019-02-26T09:02:55.963Z,99.90
2019-02-26T09:05:26.294Z,99.90
2019-02-26T09:07:55.310Z,99.90
2019-02-26T09:10:24.980Z,99.90
2019-02-26T09:12:54.356Z,99.90
2019-02-26T09:15:23.753Z,99.90
2019-02-26T09:17:53.225Z,99.90
2019-02-26T09:20:22.917Z,99.90
2019-02-26T09:22:54.487Z,99.90
2019-02-26T09:25:26.119Z,99.90
2019-02-26T09:27:54.506Z,99.90
2019-02-26T09:30:23.914Z,99.90
2019-02-26T09:32:53.350Z,99.90
2019-02-26T09:35:26.850Z,99.90
2019-02-26T09:37:56.392Z,99.90
2019-02-26T09:40:26.575Z,99.90
2019-02-26T09:42:58.205Z,99.90
2019-02-26T09:45:29.797Z,99.90
2019-02-26T09:47:58.449Z,99.90
2019-02-26T09:50:27.991Z,99.90
2019-02-26T09:52:59.177Z,99.90
2019-02-26T09:55:28.583Z,99.90
2019-02-26T09:57:58.102Z,99.90
2019-02-26T10:00:29.533Z,99.90
2019-02-26T10:07:59.448Z,99.90
2019-02-26T10:10:30.863Z,99.90
2019-02-26T10:13:01.864Z,99.90
2019-02-26T10:15:32.126Z,99.90
2019-02-26T10:18:03.920Z,99.90
2019-02-26T10:20:32.710Z,99.90
2019-02-26T10:23:05.650Z,99.90
2019-02-26T10:28:08.647Z,99.90
2019-02-26T10:30:36.966Z,99.90
2019-02-26T10:33:08.376Z,99.90
2019-02-26T10:35:39.716Z,99.90
2019-02-26T10:38:11.533Z,99.90
2019-02-26T10:40:50.515Z,99.90
2019-02-26T10:43:11.267Z,99.90
2019-02-26T10:45:44.190Z,99.90
2019-02-26T10:48:13.761Z,99.90
2019-02-26T10:50:46.983Z,99.90
2019-02-26T10:53:18.882Z,99.90
2019-02-26T10:55:45.603Z,99.90
2019-02-26T10:58:15.400Z,99.90
2019-02-26T11:00:45.560Z,99.90
2019-02-26T11:03:17.206Z,99.90
2019-02-26T11:05:48.780Z,99.90
2019-02-26T11:08:17.438Z,99.90
2019-02-26T11:10:47.913Z,99.90
2019-02-26T11:13:21.086Z,99.90
2019-02-26T11:15:51.672Z,99.90
2019-02-26T11:18:23.259Z,99.90
2019-02-26T11:20:55.250Z,99.90
2019-02-26T11:23:30.484Z,99.90
2019-02-26T11:25:54.260Z,99.90
2019-02-26T11:28:27.129Z,99.90
2019-02-26T11:30:56.574Z,99.90
2019-02-26T11:33:26.014Z,99.90
2019-02-26T11:35:55.432Z,99.90
2019-02-26T11:38:24.821Z,99.90
2019-02-26T11:40:54.394Z,99.90
2019-02-26T11:43:26.238Z,99.90
2019-02-26T11:45:56.747Z,99.90
2019-02-26T11:48:28.190Z,99.90
2019-02-26T11:51:00.759Z,99.90
2019-02-26T11:53:29.906Z,99.90
2019-02-26T11:56:01.882Z,99.90
2019-02-26T11:58:31.115Z,99.90
2019-02-26T12:01:02.259Z,99.90
2019-02-26T12:03:34.149Z,99.90
2019-02-26T12:06:02.811Z,99.90
2019-02-26T12:08:32.626Z,99.90
2019-02-26T12:11:03.957Z,99.90
2019-02-26T12:13:33.243Z,99.90
2019-02-26T12:16:02.683Z,99.90
2019-02-26T12:18:34.084Z,99.90
2019-02-26T12:21:05.399Z,99.90
2019-02-26T12:23:36.894Z,99.90
2019-02-26T12:26:05.847Z,99.90
2019-02-26T12:28:37.744Z,99.90
2019-02-26T12:31:08.096Z,99.90
2019-02-26T12:38:37.748Z,96.70
2019-02-26T12:41:09.008Z,98.50
2019-02-26T12:43:42.594Z,93.40
2019-02-26T12:46:09.627Z,97.50
2019-02-26T12:51:10.141Z,93.90
2019-02-26T12:53:49.027Z,99.90
2019-02-26T12:56:16.866Z,99.90
2019-02-26T12:58:48.285Z,99.90
2019-02-26T13:01:17.382Z,99.90
2019-02-26T13:03:51.117Z,99.90
2019-02-26T13:06:22.626Z,99.90
2019-02-26T13:08:51.290Z,99.90
2019-02-26T13:11:24.136Z,99.90
2019-02-26T13:13:53.575Z,99.90
2019-02-26T13:16:23.371Z,91.40
2019-02-26T13:19:00.109Z,93.40
2019-02-26T13:21:25.774Z,89.60
2019-02-26T13:23:58.687Z,94.20
2019-02-26T13:26:26.233Z,99.90
2019-02-26T13:28:59.534Z,99.90
2019-02-26T13:31:26.820Z,99.90
2019-02-26T13:33:56.388Z,99.90
2019-02-26T13:36:25.830Z,99.90
2019-02-26T13:38:55.453Z,99.90
2019-02-26T13:41:29.985Z,96.80
2019-02-26T13:43:55.936Z,93.60
2019-02-26T13:46:25.443Z,90.50
2019-02-26T13:48:54.941Z,91.40
2019-02-26T13:51:24.916Z,92.40
2019-02-26T13:53:54.418Z,91.60
2019-02-26T13:56:23.837Z,91.10
2019-02-26T13:58:53.284Z,91.90
2019-02-26T14:01:22.842Z,92.00
2019-02-26T14:03:52.381Z,99.90
2019-02-26T14:06:21.870Z,99.90
2019-02-26T14:08:51.999Z,99.90
2019-02-26T14:11:21.492Z,93.90
2019-02-26T14:13:51.133Z,93.90
2019-02-26T14:16:20.698Z,91.30
2019-02-26T14:18:50.362Z,99.90
2019-02-26T14:21:19.897Z,98.20
2019-02-26T14:23:49.483Z,95.10
2019-02-26T14:26:19.289Z,92.10
2019-02-26T14:28:48.769Z,84.20
2019-02-26T14:31:18.219Z,80.50
2019-02-26T14:33:47.764Z,90.10
2019-02-26T14:36:17.311Z,99.70
2019-02-26T14:38:46.905Z,99.90
2019-02-26T14:41:16.544Z,99.90
2019-02-26T14:43:46.034Z,99.20
2019-02-26T14:46:15.665Z,96.50
2019-02-26T14:48:45.182Z,97.60
2019-02-26T14:51:14.622Z,99.90
2019-02-26T14:53:44.078Z,99.90
2019-02-26T14:56:13.620Z,99.90
2019-02-26T14:58:43.075Z,99.90
2019-02-26T15:01:12.475Z,99.90
2019-02-26T15:03:41.930Z,99.90
2019-02-26T15:06:11.598Z,99.90
2019-02-26T15:08:41.381Z,99.90
2019-02-26T15:11:10.999Z,99.90
2019-02-26T15:13:40.420Z,99.90
2019-02-26T15:16:09.919Z,99.90
2019-02-26T15:18:39.399Z,99.90
2019-02-26T15:21:08.944Z,99.90
2019-02-26T15:23:38.434Z,99.90
2019-02-26T15:26:07.961Z,99.90
2019-02-26T15:28:37.569Z,99.90
2019-02-26T15:31:07.068Z,99.90
2019-02-26T15:33:36.677Z,99.90
2019-02-26T15:36:06.100Z,99.90
2019-02-26T15:38:35.586Z,99.90
2019-02-26T15:41:05.470Z,99.90
2019-02-26T15:43:35.007Z,99.90
2019-02-26T15:46:04.384Z,99.90
2019-02-26T15:48:36.464Z,99.90
2019-02-26T15:51:13.896Z,99.90
2019-02-26T15:53:36.336Z,99.90
2019-02-26T15:56:05.868Z,99.90
2019-02-26T15:58:35.321Z,99.90
2019-02-26T16:01:08.959Z,99.90
2019-02-26T16:03:38.588Z,99.90
2019-02-26T16:06:08.074Z,99.90
2019-02-26T16:08:38.586Z,99.90
2019-02-26T16:11:08.179Z,99.90
2019-02-26T16:13:37.667Z,99.90
2019-02-26T16:16:07.209Z,99.90
2019-02-26T16:18:36.769Z,99.90
2019-02-26T16:21:06.321Z,99.90
2019-02-26T16:23:35.999Z,99.90
2019-02-26T16:26:07.859Z,99.90
2019-02-26T16:28:36.746Z,99.90
2019-02-26T16:31:06.403Z,99.90
2019-02-26T16:33:35.922Z,99.90
2019-02-26T16:36:05.471Z,99.90
2019-02-26T16:38:35.148Z,99.90
2019-02-26T16:41:05.005Z,99.90
2019-02-26T16:43:35.302Z,99.90
2019-02-26T16:46:08.315Z,99.90
2019-02-26T16:48:35.948Z,99.90
2019-02-26T16:51:05.669Z,99.90
2019-02-26T16:53:35.214Z,99.90
2019-02-26T16:56:04.683Z,99.90
2019-02-26T16:58:35.575Z,99.90
2019-02-26T17:01:06.998Z,99.90
2019-02-26T17:03:36.487Z,99.90
2019-02-26T17:06:06.164Z,99.90
2019-02-26T17:08:35.620Z,99.90
2019-02-26T17:11:05.157Z,99.90
2019-02-26T17:13:35.095Z,99.90
2019-02-26T17:16:04.629Z,99.90
2019-02-26T17:18:34.126Z,99.90
2019-02-26T17:21:03.695Z,99.90
2019-02-26T17:23:33.159Z,99.90
2019-02-26T17:26:02.870Z,99.90
2019-02-26T17:28:32.304Z,99.90
2019-02-26T17:31:01.882Z,99.90
2019-02-26T17:33:31.338Z,99.90
2019-02-26T17:36:01.987Z,99.90
2019-02-26T17:38:32.036Z,99.90
2019-02-26T17:41:01.461Z,99.90
2019-02-26T17:43:31.778Z,99.90
2019-02-26T17:46:01.260Z,99.90
2019-02-26T17:48:31.231Z,99.90
2019-02-26T17:51:01.299Z,99.90
2019-02-26T17:53:30.780Z,99.90
2019-02-26T17:56:00.226Z,99.90
2019-02-26T17:58:29.639Z,99.90
2019-02-26T18:00:59.124Z,99.90
2019-02-26T18:03:28.636Z,99.90
2019-02-26T18:05:58.166Z,99.90
2019-02-26T18:08:27.829Z,99.90
2019-02-26T18:10:57.313Z,99.90
2019-02-26T18:13:27.230Z,99.90
2019-02-26T18:15:57.285Z,99.90
2019-02-26T18:18:27.933Z,99.90
2019-02-26T18:20:57.557Z,99.90
2019-02-26T18:23:27.135Z,99.90
2019-02-26T18:25:56.586Z,99.90
2019-02-26T18:28:26.183Z,99.90
2019-02-26T18:30:55.706Z,99.90
2019-02-26T18:33:25.186Z,99.90
2019-02-26T18:35:55.166Z,99.90
2019-02-26T18:38:24.651Z,99.90
2019-02-26T18:40:54.351Z,99.90
2019-02-26T18:43:23.782Z,99.90
2019-02-26T18:45:53.230Z,99.90
2019-02-26T18:48:22.807Z,99.90
2019-02-26T18:50:52.262Z,99.90
2019-02-26T18:53:21.743Z,99.90
2019-02-26T18:55:51.203Z,99.90
2019-02-26T18:58:20.708Z,99.90
2019-02-26T19:00:50.141Z,99.90
2019-02-26T19:03:19.666Z,99.90
2019-02-26T19:05:49.103Z,99.90
2019-02-26T19:08:19.070Z,99.90
2019-02-26T19:10:50.818Z,99.90
2019-02-26T19:13:20.099Z,99.90
2019-02-26T19:15:49.555Z,99.90
2019-02-26T19:18:19.037Z,99.90
2019-02-26T19:20:49.132Z,99.90
2019-02-26T19:23:19.459Z,99.90
2019-02-26T19:25:48.941Z,99.90
2019-02-26T19:28:18.581Z,99.90
2019-02-26T19:30:48.158Z,99.90
2019-02-26T19:33:18.815Z,99.90
2019-02-26T19:35:49.108Z,99.90
2019-02-26T19:38:18.711Z,99.90
2019-02-26T19:40:48.275Z,99.90
2019-02-26T19:43:17.853Z,99.90
2019-02-26T19:45:47.479Z,99.90
2019-02-26T19:48:16.964Z,99.90
2019-02-26T19:50:48.709Z,99.90
2019-02-26T19:53:17.612Z,99.90
2019-02-26T19:55:49.686Z,99.90
2019-02-26T19:58:18.321Z,99.90
2019-02-26T20:00:47.816Z,99.90
2019-02-26T20:03:17.278Z,99.90
2019-02-26T20:05:47.267Z,99.90
2019-02-26T20:08:16.924Z,99.90
2019-02-26T20:10:49.111Z,99.90
2019-02-26T20:13:18.037Z,99.90
2019-02-26T20:15:47.555Z,99.90
2019-02-26T20:18:20.595Z,99.90
2019-02-26T20:20:48.244Z,99.90
2019-02-26T20:23:17.692Z,99.90
2019-02-26T20:25:47.191Z,99.90
2019-02-26T20:28:16.587Z,99.90
2019-02-26T20:30:46.058Z,99.90
2019-02-26T20:33:15.515Z,99.90
2019-02-26T20:35:45.432Z,99.90
2019-02-26T20:38:15.407Z,99.90
2019-02-26T20:40:48.635Z,99.90
2019-02-26T20:43:15.965Z,99.90
2019-02-26T20:45:45.451Z,99.90
2019-02-26T20:48:14.941Z,99.90
2019-02-26T20:50:44.529Z,99.90
2019-02-26T20:53:14.032Z,99.90
2019-02-26T20:55:52.019Z,99.90
2019-02-26T20:58:14.613Z,99.90
2019-02-26T21:00:44.043Z,99.90
2019-02-26T21:03:13.535Z,99.90
2019-02-26T21:05:44.768Z,99.90
2019-02-26T21:08:14.153Z,99.90
2019-02-26T21:10:45.887Z,99.90
2019-02-26T21:13:14.683Z,99.90
2019-02-26T21:15:44.789Z,99.90
2019-02-26T21:18:15.220Z,99.90
2019-02-26T21:20:44.640Z,99.90
2019-02-26T21:23:14.109Z,99.90
2019-02-26T21:25:44.417Z,99.90
2019-02-26T21:28:14.659Z,99.90
2019-02-26T21:30:45.894Z,99.90
2019-02-26T21:33:15.259Z,99.90
2019-02-26T21:35:44.691Z,99.90
2019-02-26T21:38:14.119Z,99.90
2019-02-26T21:40:43.620Z,99.90
2019-02-26T21:43:13.031Z,99.90
2019-02-26T21:45:44.376Z,99.90
2019-02-26T21:48:13.567Z,99.90
2019-02-26T21:50:43.077Z,99.90
2019-02-26T21:53:12.753Z,99.90
2019-02-26T21:55:44.508Z,99.90
2019-02-26T21:58:15.019Z,99.90
2019-02-26T22:00:44.507Z,99.90
2019-02-26T22:03:13.951Z,99.90
2019-02-26T22:05:43.456Z,99.90
2019-02-26T22:08:12.834Z,99.90
2019-02-26T22:10:42.855Z,99.90
2019-02-26T22:13:12.897Z,99.90
2019-02-26T22:15:44.661Z,99.90
2019-02-26T22:18:13.509Z,99.90
2019-02-26T22:20:42.965Z,99.90
2019-02-26T22:23:12.374Z,99.90
2019-02-26T22:25:41.899Z,99.90
2019-02-26T22:28:11.295Z,99.90
2019-02-26T22:30:40.756Z,99.90
2019-02-26T22:33:10.231Z,99.90
2019-02-26T22:35:39.620Z,99.90
2019-02-26T22:38:09.050Z,99.90
2019-02-26T22:40:38.481Z,99.90
2019-02-26T22:43:07.951Z,99.90
2019-02-26T22:45:37.407Z,99.90
2019-02-26T22:48:08.648Z,99.90
2019-02-26T22:50:38.143Z,99.90
2019-02-26T22:53:07.613Z,99.90
2019-02-26T22:55:37.067Z,99.90
2019-02-26T22:58:06.468Z,99.90
2019-02-26T23:00:59.166Z,99.90
2019-02-26T23:03:28.615Z,99.90
2019-02-26T23:05:59.053Z,99.90
2019-02-26T23:08:29.217Z,99.90
2019-02-26T23:10:58.647Z,99.90
2019-02-26T23:13:31.532Z,99.90
2019-02-26T23:15:59.237Z,99.90
2019-02-26T23:18:31.049Z,99.90
2019-02-26T23:20:59.899Z,99.90
2019-02-26T23:23:29.386Z,99.90
2019-02-26T23:25:58.875Z,99.90
2019-02-26T23:28:28.536Z,99.90
2019-02-26T23:30:59.775Z,99.90
2019-02-26T23:33:29.048Z,99.90
2019-02-26T23:35:58.486Z,99.90
2019-02-26T23:38:27.944Z,99.90
2019-02-26T23:40:58.139Z,99.90
2019-02-26T23:43:28.684Z,99.90
2019-02-26T23:45:58.096Z,99.90
2019-02-26T23:48:27.527Z,99.90
2019-02-26T23:50:56.950Z,99.90
2019-02-26T23:53:26.417Z,99.90
2019-02-26T23:55:55.818Z,99.90
2019-02-26T23:58:25.266Z,99.90
